createdAt,value
2019-01-31T00:00:54.394Z,26.92
2019-01-31T00:01:54.396Z,26.92
2019-01-31T00:02:54.400Z,26.92
2019-01-31T00:03:54.403Z,26.99
2019-01-31T00:04:54.409Z,26.97
2019-01-31T00:05:54.410Z,26.95
2019-01-31T00:06:54.413Z,26.92
2019-01-31T00:07:54.416Z,26.91
2019-01-31T00:08:54.420Z,26.94
2019-01-31T00:09:54.423Z,26.94
2019-01-31T00:10:54.428Z,26.99
2019-01-31T00:11:54.430Z,26.92
2019-01-31T00:12:54.432Z,26.95
2019-01-31T00:13:54.437Z,26.89
2019-01-31T00:14:54.438Z,26.97
2019-01-31T00:15:54.442Z,26.95
2019-01-31T00:16:54.446Z,26.89
2019-01-31T00:17:54.447Z,26.94
2019-01-31T00:18:54.452Z,26.92
2019-01-31T00:19:54.455Z,26.95
2019-01-31T00:20:54.458Z,26.89
2019-01-31T00:21:54.461Z,26.89
2019-01-31T00:22:54.465Z,26.94
2019-01-31T00:23:54.467Z,26.97
2019-01-31T00:24:54.471Z,26.91
2019-01-31T00:25:54.475Z,26.94
2019-01-31T00:26:54.554Z,26.94
2019-01-31T00:27:54.480Z,26.92
2019-01-31T00:28:54.486Z,26.95
2019-01-31T00:29:54.487Z,26.94
2019-01-31T00:30:54.488Z,26.99
2019-01-31T00:31:54.495Z,27.02
2019-01-31T00:32:54.497Z,26.89
2019-01-31T00:33:54.500Z,26.97
2019-01-31T00:34:54.504Z,26.92
2019-01-31T00:35:54.506Z,26.88
2019-01-31T00:36:54.509Z,26.95
2019-01-31T00:37:54.532Z,27.00
2019-01-31T00:38:56.917Z,26.95
2019-01-31T00:39:54.519Z,26.95
2019-01-31T00:40:54.522Z,26.92
2019-01-31T00:41:54.526Z,26.94
2019-01-31T00:42:54.528Z,27.02
2019-01-31T00:43:54.531Z,26.92
2019-01-31T00:44:54.535Z,26.94
2019-01-31T00:45:54.538Z,26.97
2019-01-31T00:46:54.542Z,26.92
2019-01-31T00:47:54.549Z,26.89
2019-01-31T00:48:54.547Z,26.92
2019-01-31T00:49:54.551Z,26.92
2019-01-31T00:50:54.553Z,26.94
2019-01-31T00:51:54.557Z,26.95
2019-01-31T00:52:54.563Z,26.95
2019-01-31T00:53:54.564Z,26.97
2019-01-31T00:54:54.566Z,26.92
2019-01-31T00:55:54.570Z,26.89
2019-01-31T00:56:54.573Z,27.02
2019-01-31T00:57:54.578Z,27.00
2019-01-31T00:58:54.580Z,26.92
2019-01-31T00:59:54.583Z,26.92
2019-01-31T01:00:54.583Z,26.89
2019-01-31T01:01:54.590Z,27.00
2019-01-31T01:02:54.591Z,26.95
2019-01-31T01:03:54.595Z,26.97
2019-01-31T01:04:54.597Z,26.94
2019-01-31T01:05:54.603Z,26.94
2019-01-31T01:06:54.608Z,26.95
2019-01-31T01:07:54.610Z,26.95
2019-01-31T01:08:54.612Z,26.97
2019-01-31T01:09:54.615Z,26.95
2019-01-31T01:10:54.618Z,26.89
2019-01-31T01:11:54.623Z,26.94
2019-01-31T01:12:54.625Z,26.95
2019-01-31T01:13:54.626Z,26.89
2019-01-31T01:14:54.634Z,26.85
2019-01-31T01:15:54.633Z,26.94
2019-01-31T01:16:54.637Z,26.92
2019-01-31T01:17:54.643Z,26.95
2019-01-31T01:18:54.644Z,26.97
2019-01-31T01:19:54.645Z,26.97
2019-01-31T01:20:54.651Z,26.97
2019-01-31T01:21:54.655Z,26.94
2019-01-31T01:22:54.656Z,26.92
2019-01-31T01:23:54.659Z,26.94
2019-01-31T01:24:54.662Z,26.92
2019-01-31T01:25:54.665Z,26.91
2019-01-31T01:26:54.667Z,26.95
2019-01-31T01:27:54.674Z,26.94
2019-01-31T01:28:54.730Z,26.91
2019-01-31T01:29:54.679Z,26.91
2019-01-31T01:30:54.681Z,26.92
2019-01-31T01:31:54.684Z,26.88
2019-01-31T01:32:54.687Z,26.92
2019-01-31T01:33:54.690Z,26.84
2019-01-31T01:35:01.167Z,26.88
2019-01-31T01:35:54.696Z,26.89
2019-01-31T01:36:54.701Z,26.94
2019-01-31T01:37:54.703Z,26.88
2019-01-31T01:38:54.706Z,26.88
2019-01-31T01:39:54.710Z,26.88
2019-01-31T01:40:54.713Z,26.91
2019-01-31T01:41:54.718Z,26.89
2019-01-31T01:42:54.720Z,26.94
2019-01-31T01:43:54.722Z,26.94
2019-01-31T01:44:54.726Z,26.91
2019-01-31T01:45:54.728Z,26.91
2019-01-31T01:46:54.731Z,26.92
2019-01-31T01:47:54.735Z,26.87
2019-01-31T01:48:54.738Z,26.91
2019-01-31T01:49:54.741Z,26.89
2019-01-31T01:50:54.743Z,26.92
2019-01-31T01:51:54.747Z,26.94
2019-01-31T01:52:54.751Z,26.91
2019-01-31T01:53:54.756Z,26.91
2019-01-31T01:54:54.756Z,26.91
2019-01-31T01:55:54.760Z,26.92
2019-01-31T01:56:54.763Z,26.85
2019-01-31T01:57:54.770Z,26.92
2019-01-31T01:58:54.769Z,26.92
2019-01-31T01:59:54.774Z,26.94
2019-01-31T02:00:54.777Z,26.94
2019-01-31T02:01:54.780Z,26.88
2019-01-31T02:02:54.782Z,26.95
2019-01-31T02:03:54.785Z,26.92
2019-01-31T02:04:54.790Z,26.97
2019-01-31T02:05:54.792Z,26.95
2019-01-31T02:06:54.795Z,26.95
2019-01-31T02:07:54.798Z,26.94
2019-01-31T02:08:54.802Z,26.99
2019-01-31T02:09:54.807Z,26.94
2019-01-31T02:10:54.808Z,26.91
2019-01-31T02:11:54.811Z,26.94
2019-01-31T02:12:54.816Z,26.91
2019-01-31T02:13:54.821Z,26.97
2019-01-31T02:14:54.821Z,26.94
2019-01-31T02:15:54.824Z,26.89
2019-01-31T02:16:54.827Z,26.91
2019-01-31T02:17:54.831Z,26.99
2019-01-31T02:18:54.837Z,26.97
2019-01-31T02:19:54.876Z,26.89
2019-01-31T02:20:54.840Z,26.91
2019-01-31T02:21:54.845Z,26.89
2019-01-31T02:22:54.846Z,26.94
2019-01-31T02:23:54.851Z,26.92
2019-01-31T02:24:54.853Z,26.91
2019-01-31T02:25:54.856Z,26.95
2019-01-31T02:26:54.858Z,26.89
2019-01-31T02:27:54.861Z,26.95
2019-01-31T02:28:54.863Z,26.91
2019-01-31T02:29:54.868Z,26.97
2019-01-31T02:30:54.871Z,26.95
2019-01-31T02:31:54.875Z,26.91
2019-01-31T02:32:54.886Z,26.94
2019-01-31T02:33:54.889Z,26.95
2019-01-31T02:34:54.889Z,26.94
2019-01-31T02:35:54.890Z,26.92
2019-01-31T02:36:54.892Z,26.94
2019-01-31T02:37:54.894Z,26.88
2019-01-31T02:38:54.898Z,26.94
2019-01-31T02:39:54.898Z,26.95
2019-01-31T02:40:54.908Z,26.91
2019-01-31T02:41:54.908Z,26.91
2019-01-31T02:42:54.911Z,26.92
2019-01-31T02:43:54.914Z,26.95
2019-01-31T02:44:54.916Z,26.92
2019-01-31T02:45:54.921Z,26.92
2019-01-31T02:46:54.923Z,26.92
2019-01-31T02:47:54.928Z,26.91
2019-01-31T02:48:54.929Z,26.91
2019-01-31T02:49:54.933Z,26.92
2019-01-31T02:50:54.935Z,26.92
2019-01-31T02:51:54.938Z,26.95
2019-01-31T02:52:54.944Z,26.87
2019-01-31T02:53:54.946Z,26.97
2019-01-31T02:54:54.947Z,26.91
2019-01-31T02:55:54.952Z,26.97
2019-01-31T02:56:54.957Z,26.92
2019-01-31T02:57:54.966Z,26.89
2019-01-31T02:58:54.967Z,26.95
2019-01-31T02:59:54.967Z,26.99
2019-01-31T03:00:54.967Z,26.97
2019-01-31T03:01:54.973Z,26.95
2019-01-31T03:02:54.973Z,26.92
2019-01-31T03:03:54.979Z,26.94
2019-01-31T03:04:54.980Z,26.92
2019-01-31T03:05:54.983Z,26.94
2019-01-31T03:06:54.987Z,26.92
2019-01-31T03:07:54.989Z,26.95
2019-01-31T03:08:54.992Z,26.94
2019-01-31T03:09:55.283Z,27.00
2019-01-31T03:10:55.002Z,26.94
2019-01-31T03:11:55.002Z,26.94
2019-01-31T03:12:55.010Z,27.00
2019-01-31T03:13:55.013Z,26.88
2019-01-31T03:14:55.014Z,26.91
2019-01-31T03:15:55.024Z,26.91
2019-01-31T03:16:55.019Z,26.92
2019-01-31T03:17:55.022Z,26.92
2019-01-31T03:18:55.024Z,26.99
2019-01-31T03:19:55.029Z,26.95
2019-01-31T03:20:55.030Z,26.87
2019-01-31T03:21:55.035Z,26.89
2019-01-31T03:22:55.037Z,26.91
2019-01-31T03:23:55.041Z,26.91
2019-01-31T03:24:55.043Z,26.95
2019-01-31T03:25:55.050Z,26.95
2019-01-31T03:26:55.050Z,26.89
2019-01-31T03:27:55.053Z,26.91
2019-01-31T03:28:55.055Z,26.91
2019-01-31T03:29:55.065Z,26.88
2019-01-31T03:30:55.067Z,26.92
2019-01-31T03:31:55.074Z,26.94
2019-01-31T03:32:55.070Z,26.92
2019-01-31T03:33:55.073Z,26.97
2019-01-31T03:34:55.125Z,26.97
2019-01-31T03:35:55.080Z,26.95
2019-01-31T03:36:55.087Z,26.94
2019-01-31T03:37:55.093Z,26.97
2019-01-31T03:38:55.092Z,26.91
2019-01-31T03:40:06.313Z,26.91
2019-01-31T03:40:55.096Z,26.89
2019-01-31T03:41:55.104Z,26.88
2019-01-31T03:42:55.108Z,26.94
2019-01-31T03:43:55.108Z,26.99
2019-01-31T03:44:55.111Z,26.92
2019-01-31T03:45:55.111Z,26.94
2019-01-31T03:46:55.113Z,26.94
2019-01-31T03:47:55.117Z,26.97
2019-01-31T03:48:55.124Z,26.97
2019-01-31T03:49:55.182Z,26.89
2019-01-31T03:50:55.135Z,26.92
2019-01-31T03:51:55.132Z,26.94
2019-01-31T03:52:55.134Z,26.91
2019-01-31T03:53:55.136Z,26.92
2019-01-31T03:54:55.147Z,26.82
2019-01-31T03:55:55.149Z,26.87
2019-01-31T03:56:55.145Z,26.94
2019-01-31T03:57:55.150Z,26.91
2019-01-31T03:58:55.151Z,26.91
2019-01-31T03:59:55.154Z,26.91
2019-01-31T04:00:55.158Z,26.91
2019-01-31T04:01:55.161Z,26.91
2019-01-31T04:02:55.162Z,26.94
2019-01-31T04:03:55.170Z,26.99
2019-01-31T04:04:55.171Z,26.97
2019-01-31T04:05:55.174Z,26.89
2019-01-31T04:06:55.177Z,26.89
2019-01-31T04:07:55.180Z,26.89
2019-01-31T04:08:55.183Z,26.92
2019-01-31T04:09:55.187Z,26.92
2019-01-31T04:10:55.189Z,26.89
2019-01-31T04:11:55.191Z,26.91
2019-01-31T04:12:55.197Z,26.97
2019-01-31T04:13:55.201Z,26.88
2019-01-31T04:14:55.202Z,26.94
2019-01-31T04:15:55.206Z,26.97
2019-01-31T04:16:55.208Z,26.94
2019-01-31T04:17:55.212Z,26.92
2019-01-31T04:18:55.277Z,26.99
2019-01-31T04:19:55.272Z,26.94
2019-01-31T04:20:55.226Z,26.92
2019-01-31T04:21:55.228Z,26.91
2019-01-31T04:22:55.225Z,26.91
2019-01-31T04:23:55.231Z,26.95
2019-01-31T04:24:55.235Z,26.89
2019-01-31T04:25:55.237Z,26.95
2019-01-31T04:26:55.239Z,26.92
2019-01-31T04:27:55.244Z,26.91
2019-01-31T04:28:55.246Z,26.92
2019-01-31T04:29:55.250Z,26.91
2019-01-31T04:30:55.256Z,26.85
2019-01-31T04:31:55.255Z,26.88
2019-01-31T04:32:55.258Z,26.94
2019-01-31T04:33:55.262Z,26.89
2019-01-31T04:34:55.318Z,26.97
2019-01-31T04:35:55.269Z,26.97
2019-01-31T04:36:55.271Z,26.89
2019-01-31T04:37:55.282Z,26.94
2019-01-31T04:38:55.277Z,26.89
2019-01-31T04:39:55.281Z,26.94
2019-01-31T04:40:55.293Z,26.95
2019-01-31T04:41:55.288Z,26.91
2019-01-31T04:42:55.290Z,26.92
2019-01-31T04:43:55.294Z,26.94
2019-01-31T04:44:55.297Z,26.94
2019-01-31T04:45:55.298Z,26.95
2019-01-31T04:46:55.302Z,26.95
2019-01-31T04:47:56.441Z,26.94
2019-01-31T04:48:55.311Z,26.89
2019-01-31T04:49:55.313Z,26.94
2019-01-31T04:50:55.314Z,26.97
2019-01-31T04:51:55.321Z,26.94
2019-01-31T04:52:55.322Z,26.95
2019-01-31T04:53:55.327Z,26.92
2019-01-31T04:54:55.329Z,27.00
2019-01-31T04:55:55.332Z,26.92
2019-01-31T04:56:55.342Z,26.94
2019-01-31T04:57:55.337Z,26.95
2019-01-31T04:58:55.341Z,26.89
2019-01-31T04:59:55.344Z,26.95
2019-01-31T05:00:55.348Z,26.95
2019-01-31T05:01:55.349Z,26.95
2019-01-31T05:02:55.354Z,26.92
2019-01-31T05:03:55.358Z,26.97
2019-01-31T05:04:55.361Z,26.99
2019-01-31T05:05:55.364Z,26.92
2019-01-31T05:06:55.367Z,26.92
2019-01-31T05:07:55.370Z,26.89
2019-01-31T05:08:55.372Z,26.97
2019-01-31T05:09:55.377Z,26.97
2019-01-31T05:10:55.381Z,26.97
2019-01-31T05:11:55.388Z,26.94
2019-01-31T05:12:55.386Z,26.95
2019-01-31T05:13:55.390Z,26.95
2019-01-31T05:14:55.392Z,26.92
2019-01-31T05:15:55.395Z,26.89
2019-01-31T05:16:55.402Z,26.88
2019-01-31T05:17:55.404Z,26.88
2019-01-31T05:18:55.519Z,26.91
2019-01-31T05:19:55.410Z,26.87
2019-01-31T05:20:55.411Z,26.92
2019-01-31T05:21:55.414Z,26.91
2019-01-31T05:22:55.417Z,26.92
2019-01-31T05:23:55.423Z,26.82
2019-01-31T05:24:55.424Z,26.94
2019-01-31T05:25:55.427Z,26.89
2019-01-31T05:26:55.428Z,26.89
2019-01-31T05:27:55.434Z,26.94
2019-01-31T05:28:55.436Z,26.88
2019-01-31T05:29:55.440Z,26.95
2019-01-31T05:30:55.446Z,26.97
2019-01-31T05:31:55.444Z,27.00
2019-01-31T05:32:55.450Z,26.97
2019-01-31T05:33:55.454Z,26.92
2019-01-31T05:34:55.453Z,26.95
2019-01-31T05:35:55.458Z,26.94
2019-01-31T05:36:55.462Z,26.94
2019-01-31T05:37:55.467Z,26.92
2019-01-31T05:38:55.468Z,26.94
2019-01-31T05:39:55.471Z,26.94
2019-01-31T05:40:56.085Z,26.92
2019-01-31T05:41:55.480Z,26.89
2019-01-31T05:42:55.486Z,26.91
2019-01-31T05:43:55.484Z,26.95
2019-01-31T05:44:55.488Z,26.95
2019-01-31T05:45:55.490Z,27.02
2019-01-31T05:46:55.493Z,26.94
2019-01-31T05:47:55.498Z,27.02
2019-01-31T05:48:55.500Z,26.95
2019-01-31T05:49:55.518Z,27.02
2019-01-31T05:50:55.506Z,27.06
2019-01-31T05:51:55.516Z,27.02
2019-01-31T05:52:55.526Z,27.07
2019-01-31T05:53:55.516Z,27.06
2019-01-31T05:54:55.518Z,26.97
2019-01-31T05:55:55.524Z,27.09
2019-01-31T05:56:55.526Z,27.03
2019-01-31T05:57:55.534Z,27.06
2019-01-31T05:58:55.529Z,27.06
2019-01-31T05:59:55.686Z,27.06
2019-01-31T06:00:55.545Z,27.06
2019-01-31T06:01:55.547Z,26.99
2019-01-31T06:02:55.544Z,27.06
2019-01-31T06:03:55.548Z,27.02
2019-01-31T06:04:55.556Z,27.06
2019-01-31T06:05:55.555Z,27.06
2019-01-31T06:06:55.557Z,27.09
2019-01-31T06:07:55.560Z,27.07
2019-01-31T06:08:55.564Z,27.03
2019-01-31T06:09:55.567Z,26.99
2019-01-31T06:11:06.827Z,27.07
2019-01-31T06:11:55.583Z,27.07
2019-01-31T06:12:55.589Z,27.09
2019-01-31T06:13:55.586Z,27.09
2019-01-31T06:14:55.585Z,27.09
2019-01-31T06:15:55.590Z,27.09
2019-01-31T06:16:55.590Z,27.06
2019-01-31T06:17:55.593Z,27.00
2019-01-31T06:18:55.595Z,27.04
2019-01-31T06:19:55.603Z,27.06
2019-01-31T06:20:55.604Z,27.09
2019-01-31T06:21:55.605Z,27.09
2019-01-31T06:22:55.608Z,27.06
2019-01-31T06:23:55.612Z,27.03
2019-01-31T06:24:55.615Z,27.12
2019-01-31T06:25:55.618Z,27.00
2019-01-31T06:26:55.621Z,27.00
2019-01-31T06:27:55.624Z,27.12
2019-01-31T06:28:55.628Z,27.00
2019-01-31T06:29:55.631Z,27.02
2019-01-31T06:30:55.634Z,27.06
2019-01-31T06:31:55.637Z,27.14
2019-01-31T06:32:55.643Z,27.07
2019-01-31T06:33:55.656Z,27.13
2019-01-31T06:34:55.651Z,27.09
2019-01-31T06:35:55.653Z,27.12
2019-01-31T06:36:55.658Z,27.04
2019-01-31T06:37:55.659Z,27.09
2019-01-31T06:38:55.662Z,27.10
2019-01-31T06:39:55.662Z,27.02
2019-01-31T06:40:55.666Z,27.10
2019-01-31T06:41:55.670Z,27.02
2019-01-31T06:42:55.672Z,27.09
2019-01-31T06:43:55.675Z,27.10
2019-01-31T06:44:55.681Z,27.06
2019-01-31T06:45:56.322Z,27.04
2019-01-31T06:46:55.686Z,27.00
2019-01-31T06:47:55.702Z,27.06
2019-01-31T06:48:55.692Z,27.06
2019-01-31T06:49:55.746Z,27.09
2019-01-31T06:50:55.696Z,27.03
2019-01-31T06:51:55.701Z,27.03
2019-01-31T06:52:58.189Z,27.12
2019-01-31T06:53:55.710Z,27.10
2019-01-31T06:54:55.861Z,27.10
2019-01-31T06:55:55.715Z,27.03
2019-01-31T06:56:55.718Z,27.12
2019-01-31T06:57:55.776Z,27.07
2019-01-31T06:58:55.728Z,27.17
2019-01-31T06:59:55.730Z,27.07
2019-01-31T07:00:55.731Z,27.09
2019-01-31T07:01:55.738Z,27.14
2019-01-31T07:02:55.736Z,27.13
2019-01-31T07:03:55.789Z,27.10
2019-01-31T07:04:55.743Z,27.14
2019-01-31T07:05:55.747Z,27.18
2019-01-31T07:06:55.748Z,27.12
2019-01-31T07:07:55.754Z,27.10
2019-01-31T07:08:55.757Z,27.13
2019-01-31T07:09:55.810Z,27.12
2019-01-31T07:10:55.761Z,27.07
2019-01-31T07:11:55.766Z,27.04
2019-01-31T07:12:55.770Z,27.04
2019-01-31T07:13:55.774Z,27.13
2019-01-31T07:14:55.775Z,27.13
2019-01-31T07:15:55.778Z,27.12
2019-01-31T07:16:55.782Z,27.10
2019-01-31T07:17:55.786Z,27.18
2019-01-31T07:18:55.791Z,27.12
2019-01-31T07:19:56.583Z,27.21
2019-01-31T07:20:55.874Z,27.10
2019-01-31T07:21:55.803Z,27.13
2019-01-31T07:22:55.801Z,27.07
2019-01-31T07:23:55.805Z,27.10
2019-01-31T07:24:55.808Z,27.06
2019-01-31T07:25:55.812Z,27.18
2019-01-31T07:26:55.814Z,27.14
2019-01-31T07:27:55.855Z,27.19
2019-01-31T07:28:55.821Z,27.12
2019-01-31T07:29:55.826Z,27.06
2019-01-31T07:30:55.828Z,27.13
2019-01-31T07:31:55.831Z,27.13
2019-01-31T07:32:55.834Z,27.13
2019-01-31T07:33:55.892Z,27.13
2019-01-31T07:34:55.893Z,27.21
2019-01-31T07:35:55.843Z,27.14
2019-01-31T07:36:55.850Z,27.14
2019-01-31T07:37:55.851Z,27.12
2019-01-31T07:38:55.854Z,27.22
2019-01-31T07:39:55.857Z,27.13
2019-01-31T07:40:55.864Z,27.13
2019-01-31T07:41:55.864Z,27.12
2019-01-31T07:42:55.866Z,27.12
2019-01-31T07:43:55.869Z,27.12
2019-01-31T07:44:55.873Z,27.14
2019-01-31T07:45:55.891Z,27.09
2019-01-31T07:46:55.881Z,27.10
2019-01-31T07:47:55.883Z,27.17
2019-01-31T07:48:55.885Z,27.14
2019-01-31T07:49:55.961Z,27.17
2019-01-31T07:50:55.889Z,27.13
2019-01-31T07:51:55.901Z,27.10
2019-01-31T07:52:55.904Z,27.09
2019-01-31T07:53:55.956Z,27.13
2019-01-31T07:54:55.905Z,27.21
2019-01-31T07:55:55.910Z,27.06
2019-01-31T07:56:55.912Z,27.18
2019-01-31T07:57:55.918Z,27.12
2019-01-31T07:58:55.919Z,27.12
2019-01-31T07:59:55.924Z,27.13
2019-01-31T08:00:55.977Z,27.21
2019-01-31T08:01:55.929Z,27.12
2019-01-31T08:02:55.933Z,27.09
2019-01-31T08:04:02.694Z,27.18
2019-01-31T08:04:55.990Z,27.12
2019-01-31T08:05:55.944Z,27.14
2019-01-31T08:06:55.949Z,27.12
2019-01-31T08:07:55.953Z,27.13
2019-01-31T08:08:55.959Z,27.13
2019-01-31T08:09:56.212Z,27.12
2019-01-31T08:10:55.959Z,27.09
2019-01-31T08:11:55.963Z,27.13
2019-01-31T08:12:55.966Z,27.19
2019-01-31T08:13:55.970Z,27.13
2019-01-31T08:14:56.020Z,27.13
2019-01-31T08:15:55.976Z,27.13
2019-01-31T08:16:55.980Z,27.13
2019-01-31T08:17:55.987Z,27.18
2019-01-31T08:18:55.986Z,27.14
2019-01-31T08:19:55.990Z,27.10
2019-01-31T08:20:55.993Z,27.14
2019-01-31T08:21:55.996Z,27.09
2019-01-31T08:22:55.999Z,27.18
2019-01-31T08:23:56.003Z,27.13
2019-01-31T08:24:56.006Z,27.09
2019-01-31T08:25:56.010Z,27.13
2019-01-31T08:26:56.120Z,27.19
2019-01-31T08:27:56.022Z,27.10
2019-01-31T08:28:56.021Z,27.14
2019-01-31T08:29:56.022Z,27.13
2019-01-31T08:30:56.026Z,27.17
2019-01-31T08:31:56.039Z,27.19
2019-01-31T08:32:56.034Z,27.13
2019-01-31T08:33:56.038Z,27.14
2019-01-31T08:34:56.040Z,27.14
2019-01-31T08:35:56.045Z,27.14
2019-01-31T08:36:56.046Z,27.22
2019-01-31T08:37:56.051Z,27.22
2019-01-31T08:38:56.051Z,27.19
2019-01-31T08:39:56.056Z,27.14
2019-01-31T08:40:56.061Z,27.25
2019-01-31T08:42:03.563Z,27.25
2019-01-31T08:42:56.066Z,27.22
2019-01-31T08:43:56.069Z,27.22
2019-01-31T08:44:56.073Z,27.27
2019-01-31T08:45:56.074Z,27.24
2019-01-31T08:46:56.078Z,27.22
2019-01-31T08:47:56.081Z,27.27
2019-01-31T08:48:56.084Z,27.24
2019-01-31T08:49:56.090Z,27.21
2019-01-31T08:50:56.090Z,27.28
2019-01-31T08:51:56.097Z,27.25
2019-01-31T08:52:56.098Z,27.27
2019-01-31T08:53:56.100Z,27.22
2019-01-31T08:54:56.105Z,27.24
2019-01-31T08:55:56.109Z,27.25
2019-01-31T08:56:56.115Z,27.21
2019-01-31T08:57:56.118Z,27.25
2019-01-31T08:58:56.120Z,27.18
2019-01-31T08:59:56.172Z,27.25
2019-01-31T09:00:56.127Z,27.19
2019-01-31T09:01:56.130Z,27.21
2019-01-31T09:02:56.134Z,27.19
2019-01-31T09:03:56.137Z,27.18
2019-01-31T09:04:56.139Z,27.22
2019-01-31T09:05:56.213Z,27.14
2019-01-31T09:06:56.144Z,27.13
2019-01-31T09:07:56.153Z,27.14
2019-01-31T09:08:56.149Z,27.12
2019-01-31T09:09:56.256Z,27.12
2019-01-31T09:10:56.158Z,27.12
2019-01-31T09:11:56.167Z,27.13
2019-01-31T09:12:56.169Z,27.13
2019-01-31T09:13:56.169Z,27.10
2019-01-31T09:14:56.172Z,27.13
2019-01-31T09:15:56.173Z,27.12
2019-01-31T09:16:56.183Z,27.09
2019-01-31T09:17:56.181Z,27.14
2019-01-31T09:18:56.185Z,27.14
2019-01-31T09:19:56.190Z,27.04
2019-01-31T09:20:56.192Z,27.04
2019-01-31T09:21:56.210Z,27.07
2019-01-31T09:22:56.200Z,27.14
2019-01-31T09:23:56.204Z,27.06
2019-01-31T09:24:56.206Z,27.10
2019-01-31T09:25:56.208Z,27.09
2019-01-31T09:26:56.211Z,27.03
2019-01-31T09:27:56.216Z,27.12
2019-01-31T09:28:56.269Z,27.10
2019-01-31T09:29:56.326Z,27.09
2019-01-31T09:30:56.225Z,27.19
2019-01-31T09:31:56.228Z,27.07
2019-01-31T09:32:56.233Z,27.10
2019-01-31T09:33:56.236Z,27.18
2019-01-31T09:34:56.338Z,27.19
2019-01-31T09:35:56.240Z,27.14
2019-01-31T09:36:56.251Z,27.17
2019-01-31T09:37:56.256Z,27.12
2019-01-31T09:38:56.305Z,27.14
2019-01-31T09:39:56.256Z,27.14
2019-01-31T09:40:56.259Z,27.18
2019-01-31T09:41:56.262Z,27.24
2019-01-31T09:42:56.270Z,27.22
2019-01-31T09:43:56.270Z,27.24
2019-01-31T09:44:56.373Z,27.19
2019-01-31T09:45:56.281Z,27.24
2019-01-31T09:46:56.280Z,27.21
2019-01-31T09:47:56.286Z,27.24
2019-01-31T09:48:56.287Z,27.24
2019-01-31T09:49:56.343Z,27.25
2019-01-31T09:50:56.290Z,27.25
2019-01-31T09:51:56.296Z,27.27
2019-01-31T09:52:56.331Z,27.36
2019-01-31T09:53:56.304Z,27.22
2019-01-31T09:54:56.306Z,27.36
2019-01-31T09:55:56.309Z,27.24
2019-01-31T09:56:56.314Z,27.32
2019-01-31T09:57:56.316Z,27.31
2019-01-31T09:58:56.319Z,27.32
2019-01-31T09:59:56.323Z,27.25
2019-01-31T10:00:56.335Z,27.25
2019-01-31T10:01:56.339Z,27.24
2019-01-31T10:02:56.333Z,27.21
2019-01-31T10:03:56.340Z,27.19
2019-01-31T10:04:56.390Z,27.21
2019-01-31T10:05:56.344Z,27.28
2019-01-31T10:06:56.346Z,27.24
2019-01-31T10:07:56.350Z,27.18
2019-01-31T10:08:56.355Z,27.22
2019-01-31T10:09:56.458Z,27.19
2019-01-31T10:10:56.412Z,27.18
2019-01-31T10:11:56.407Z,27.14
2019-01-31T10:12:56.415Z,27.13
2019-01-31T10:13:56.460Z,27.22
2019-01-31T10:14:56.427Z,27.18
2019-01-31T10:15:56.537Z,27.21
2019-01-31T10:16:56.473Z,27.27
2019-01-31T10:17:56.420Z,27.28
2019-01-31T10:18:56.447Z,27.27
2019-01-31T10:19:56.447Z,27.36
2019-01-31T10:20:56.397Z,27.36
2019-01-31T10:21:56.501Z,27.31
2019-01-31T10:22:56.406Z,27.34
2019-01-31T10:23:56.406Z,27.34
2019-01-31T10:24:56.502Z,27.39
2019-01-31T10:25:56.412Z,27.31
2019-01-31T10:26:56.415Z,27.43
2019-01-31T10:27:56.417Z,27.39
2019-01-31T10:28:56.421Z,27.27
2019-01-31T10:29:56.426Z,27.32
2019-01-31T10:30:56.477Z,27.43
2019-01-31T10:31:56.433Z,27.41
2019-01-31T10:32:56.436Z,27.43
2019-01-31T10:33:56.442Z,27.44
2019-01-31T10:34:56.443Z,27.44
2019-01-31T10:35:56.446Z,27.46
2019-01-31T10:36:56.500Z,27.40
2019-01-31T10:37:56.456Z,27.40
2019-01-31T10:38:56.508Z,27.41
2019-01-31T10:39:56.610Z,27.41
2019-01-31T10:40:56.568Z,27.36
2019-01-31T10:41:56.468Z,27.41
2019-01-31T10:42:56.570Z,27.40
2019-01-31T10:43:56.477Z,27.46
2019-01-31T10:44:56.480Z,27.41
2019-01-31T10:45:56.532Z,27.43
2019-01-31T10:46:56.534Z,27.43
2019-01-31T10:47:56.486Z,27.34
2019-01-31T10:48:56.492Z,27.31
2019-01-31T10:49:56.545Z,27.41
2019-01-31T10:50:58.496Z,27.40
2019-01-31T10:51:56.504Z,27.31
2019-01-31T10:52:56.507Z,27.47
2019-01-31T10:53:56.511Z,27.41
2019-01-31T10:54:56.512Z,27.40
2019-01-31T10:55:56.515Z,27.29
2019-01-31T10:56:56.520Z,27.41
2019-01-31T10:57:56.522Z,27.37
2019-01-31T10:58:56.526Z,27.32
2019-01-31T10:59:56.529Z,27.28
2019-01-31T11:00:56.533Z,27.34
2019-01-31T11:01:56.536Z,27.37
2019-01-31T11:02:56.538Z,27.44
2019-01-31T11:03:56.542Z,27.41
2019-01-31T11:04:56.546Z,27.34
2019-01-31T11:05:56.550Z,27.34
2019-01-31T11:06:56.561Z,27.37
2019-01-31T11:07:59.459Z,27.31
2019-01-31T11:08:56.562Z,27.41
2019-01-31T11:09:56.612Z,27.29
2019-01-31T11:10:56.567Z,27.43
2019-01-31T11:11:56.571Z,27.29
2019-01-31T11:13:00.636Z,27.31
2019-01-31T11:13:56.579Z,27.36
2019-01-31T11:14:56.580Z,27.37
2019-01-31T11:15:56.586Z,27.32
2019-01-31T11:16:56.589Z,27.39
2019-01-31T11:17:56.642Z,27.34
2019-01-31T11:18:56.594Z,27.34
2019-01-31T11:19:56.599Z,27.34
2019-01-31T11:20:56.602Z,27.32
2019-01-31T11:21:56.604Z,27.41
2019-01-31T11:22:56.608Z,27.34
2019-01-31T11:23:56.611Z,27.36
2019-01-31T11:24:56.613Z,27.31
2019-01-31T11:25:56.619Z,27.37
2019-01-31T11:26:57.105Z,27.40
2019-01-31T11:27:56.624Z,27.40
2019-01-31T11:28:56.679Z,27.40
2019-01-31T11:29:56.683Z,27.49
2019-01-31T11:30:56.636Z,27.40
2019-01-31T11:31:56.751Z,27.39
2019-01-31T11:32:56.641Z,27.39
2019-01-31T11:33:56.647Z,27.41
2019-01-31T11:34:56.651Z,27.40
2019-01-31T11:35:56.654Z,27.40
2019-01-31T11:36:56.658Z,27.32
2019-01-31T11:37:56.660Z,27.41
2019-01-31T11:38:56.664Z,27.43
2019-01-31T11:39:56.764Z,27.37
2019-01-31T11:40:56.671Z,27.32
2019-01-31T11:41:56.674Z,27.39
2019-01-31T11:42:56.676Z,27.41
2019-01-31T11:43:56.694Z,27.37
2019-01-31T11:44:56.786Z,27.39
2019-01-31T11:45:56.692Z,27.43
2019-01-31T11:46:56.692Z,27.46
2019-01-31T11:47:56.693Z,27.40
2019-01-31T11:48:56.698Z,27.49
2019-01-31T11:49:56.704Z,27.41
2019-01-31T11:50:56.705Z,27.40
2019-01-31T11:51:56.716Z,27.37
2019-01-31T11:52:56.712Z,27.43
2019-01-31T11:53:56.805Z,27.46
2019-01-31T11:54:56.722Z,27.41
2019-01-31T11:55:56.722Z,27.31
2019-01-31T11:57:05.231Z,27.34
2019-01-31T11:57:56.733Z,27.40
2019-01-31T11:58:56.733Z,27.29
2019-01-31T11:59:56.740Z,27.34
2019-01-31T12:00:56.740Z,27.32
2019-01-31T12:01:56.744Z,27.31
2019-01-31T12:02:56.745Z,27.28
2019-01-31T12:03:56.751Z,27.37
2019-01-31T12:04:56.755Z,27.28
2019-01-31T12:05:56.758Z,27.32
2019-01-31T12:06:56.761Z,27.47
2019-01-31T12:07:56.764Z,27.41
2019-01-31T12:08:56.768Z,27.49
2019-01-31T12:09:56.772Z,27.39
2019-01-31T12:10:56.781Z,27.41
2019-01-31T12:11:56.782Z,27.46
2019-01-31T12:12:56.781Z,27.57
2019-01-31T12:13:56.787Z,27.50
2019-01-31T12:14:56.788Z,27.47
2019-01-31T12:15:56.793Z,27.47
2019-01-31T12:16:56.797Z,27.47
2019-01-31T12:17:56.801Z,27.55
2019-01-31T12:18:56.803Z,27.54
2019-01-31T12:19:56.957Z,27.57
2019-01-31T12:20:56.810Z,27.50
2019-01-31T12:21:56.812Z,27.50
2019-01-31T12:22:56.819Z,27.62
2019-01-31T12:23:56.822Z,27.62
2019-01-31T12:24:56.824Z,27.55
2019-01-31T12:25:56.827Z,27.55
2019-01-31T12:26:56.831Z,27.51
2019-01-31T12:27:56.835Z,27.54
2019-01-31T12:28:56.837Z,27.55
2019-01-31T12:29:56.843Z,27.62
2019-01-31T12:30:56.845Z,27.60
2019-01-31T12:31:56.848Z,27.65
2019-01-31T12:32:56.905Z,27.63
2019-01-31T12:33:56.858Z,27.51
2019-01-31T12:34:56.858Z,27.57
2019-01-31T12:35:56.862Z,27.59
2019-01-31T12:36:56.866Z,27.62
2019-01-31T12:37:56.870Z,27.69
2019-01-31T12:38:56.878Z,27.65
2019-01-31T12:39:57.077Z,27.70
2019-01-31T12:40:56.929Z,27.67
2019-01-31T12:41:56.884Z,27.62
2019-01-31T12:42:56.887Z,27.66
2019-01-31T12:43:56.898Z,27.66
2019-01-31T12:44:56.896Z,27.67
2019-01-31T12:45:56.901Z,27.63
2019-01-31T12:46:56.951Z,27.70
2019-01-31T12:47:56.906Z,27.69
2019-01-31T12:48:56.908Z,27.66
2019-01-31T12:49:57.062Z,27.63
2019-01-31T12:50:56.916Z,27.67
2019-01-31T12:51:56.923Z,27.67
2019-01-31T12:52:56.973Z,27.70